createdAt,value
2018-12-14T00:00:40.137Z,82.90
2018-12-14T00:03:11.356Z,84.93
2018-12-14T00:05:38.756Z,81.94
2018-12-14T00:08:06.160Z,82.46
2018-12-14T00:10:37.177Z,82.87
2018-12-14T00:13:04.563Z,83.60
2018-12-14T00:15:37.494Z,82.73
2018-12-14T00:18:04.900Z,82.92
2018-12-14T00:20:32.295Z,82.85
2018-12-14T00:22:59.649Z,83.44
2018-12-14T00:25:27.046Z,83.80
2018-12-14T00:27:55.454Z,83.83
2018-12-14T00:30:22.880Z,82.08
2018-12-14T00:32:50.249Z,83.59
2018-12-14T00:35:18.008Z,84.14
2018-12-14T00:37:46.405Z,84.16
2018-12-14T00:40:13.811Z,84.55
2018-12-14T00:42:44.475Z,85.66
2018-12-14T00:45:13.270Z,84.61
2018-12-14T00:47:48.470Z,83.88
2018-12-14T00:50:15.865Z,83.73
2018-12-14T00:52:43.241Z,84.29
2018-12-14T00:55:10.675Z,84.08
2018-12-14T00:57:47.497Z,85.37
2018-12-14T01:00:15.039Z,85.90
2018-12-14T01:02:42.391Z,84.72
2018-12-14T01:05:09.731Z,85.15
2018-12-14T01:10:37.361Z,85.57
2018-12-14T01:13:05.071Z,85.15
2018-12-14T01:15:32.421Z,83.94
2018-12-14T01:20:51.975Z,85.03
2018-12-14T01:23:19.360Z,84.28
2018-12-14T01:25:46.765Z,83.18
2018-12-14T01:28:14.180Z,84.30
2018-12-14T01:30:47.221Z,83.35
2018-12-14T01:33:14.592Z,83.36
2018-12-14T01:35:45.450Z,84.49
2018-12-14T01:38:12.804Z,84.13
2018-12-14T01:42:05.079Z,84.61
2018-12-14T01:44:32.658Z,84.59
2018-12-14T01:50:15.441Z,83.20
2018-12-14T01:52:42.856Z,83.07
2018-12-14T01:55:10.291Z,83.15
2018-12-14T01:57:40.856Z,82.71
2018-12-14T02:00:08.341Z,83.50
2018-12-14T02:02:35.707Z,84.42
2018-12-14T02:05:03.677Z,83.15
2018-12-14T02:07:38.582Z,82.87
2018-12-14T02:10:06.091Z,83.41
2018-12-14T02:12:33.436Z,84.00
2018-12-14T02:15:00.806Z,84.86
2018-12-14T02:20:23.264Z,84.25
2018-12-14T02:22:56.410Z,85.25
2018-12-14T02:25:25.797Z,84.42
2018-12-14T02:27:57.823Z,84.24
2018-12-14T02:30:38.572Z,85.13
2018-12-14T02:33:05.910Z,84.63
2018-12-14T02:35:33.306Z,85.15
2018-12-14T02:38:01.941Z,84.53
2018-12-14T02:40:32.954Z,85.55
2018-12-14T02:43:00.472Z,84.91
2018-12-14T02:45:28.016Z,83.20
2018-12-14T02:48:01.791Z,83.70
2018-12-14T02:50:29.221Z,83.96
2018-12-14T02:53:00.198Z,82.48
2018-12-14T02:55:29.279Z,83.92
2018-12-14T02:58:10.152Z,84.62
2018-12-14T03:00:37.550Z,85.34
2018-12-14T03:03:04.943Z,85.40
2018-12-14T03:05:32.318Z,82.44
2018-12-14T03:08:00.708Z,82.15
2018-12-14T03:10:28.183Z,84.25
2018-12-14T03:12:55.587Z,83.87
2018-12-14T03:15:22.913Z,83.00
2018-12-14T03:17:53.709Z,82.97
2018-12-14T03:20:21.055Z,83.47
2018-12-14T03:22:53.977Z,83.54
2018-12-14T03:25:21.335Z,84.57
2018-12-14T03:27:48.747Z,84.27
2018-12-14T03:30:16.162Z,85.19
2018-12-14T03:32:43.551Z,84.03
2018-12-14T03:35:10.934Z,83.20
2018-12-14T03:37:41.576Z,83.37
2018-12-14T03:40:08.959Z,83.05
2018-12-14T03:42:36.411Z,82.59
2018-12-14T03:45:07.469Z,82.97
2018-12-14T03:47:40.660Z,82.61
2018-12-14T03:50:08.116Z,83.53
2018-12-14T03:52:39.127Z,83.75
2018-12-14T03:55:06.509Z,83.87
2018-12-14T03:57:34.978Z,85.16
2018-12-14T04:00:05.238Z,83.17
2018-12-14T04:02:32.733Z,83.39
2018-12-14T04:05:00.139Z,84.00
2018-12-14T04:07:27.518Z,83.79
2018-12-14T04:09:54.867Z,84.69
2018-12-14T04:12:22.239Z,84.61
2018-12-14T04:14:49.698Z,83.38
2018-12-14T04:17:17.049Z,83.12
2018-12-14T04:19:44.449Z,84.16
2018-12-14T04:22:11.809Z,83.09
2018-12-14T04:24:39.212Z,82.72
2018-12-14T04:27:06.584Z,83.62
2018-12-14T04:29:33.950Z,82.09
2018-12-14T04:32:01.289Z,82.37
2018-12-14T04:34:28.805Z,81.46
2018-12-14T04:36:56.228Z,83.51
2018-12-14T04:39:23.582Z,83.62
2018-12-14T04:41:51.018Z,84.20
2018-12-14T04:44:18.382Z,84.30
2018-12-14T04:49:54.537Z,82.40
2018-12-14T04:52:21.908Z,83.00
2018-12-14T04:54:49.254Z,82.73
2018-12-14T04:57:18.656Z,81.69
2018-12-14T04:59:49.314Z,82.44
2018-12-14T05:02:16.648Z,84.27
2018-12-14T05:04:44.062Z,83.09
2018-12-14T05:07:12.461Z,82.84
2018-12-14T05:09:39.855Z,82.40
2018-12-14T05:12:07.390Z,82.29
2018-12-14T05:14:36.077Z,81.62
2018-12-14T05:17:07.218Z,82.94
2018-12-14T05:19:34.586Z,81.80
2018-12-14T05:22:02.228Z,82.06
2018-12-14T05:24:29.618Z,81.31
2018-12-14T05:29:55.752Z,83.21
2018-12-14T05:32:27.063Z,83.37
2018-12-14T05:34:58.232Z,83.50
2018-12-14T05:37:44.443Z,83.54
2018-12-14T05:40:11.829Z,82.83
2018-12-14T05:42:42.918Z,84.47
2018-12-14T05:45:10.298Z,84.25
2018-12-14T05:50:53.519Z,84.32
2018-12-14T05:53:20.907Z,85.00
2018-12-14T05:55:52.087Z,84.71
2018-12-14T05:58:19.475Z,84.92
2018-12-14T06:00:46.873Z,85.36
2018-12-14T06:03:17.656Z,85.02
2018-12-14T06:05:46.603Z,85.52
2018-12-14T06:08:13.992Z,84.58
2018-12-14T06:10:41.359Z,85.06
2018-12-14T06:13:09.241Z,84.60
2018-12-14T06:15:36.835Z,84.68
2018-12-14T06:18:09.871Z,85.52
2018-12-14T06:20:37.213Z,85.49
2018-12-14T06:23:10.050Z,85.77
2018-12-14T06:25:37.391Z,85.65
2018-12-14T06:28:04.804Z,84.29
2018-12-14T06:30:32.184Z,84.09
2018-12-14T06:32:59.581Z,83.90
2018-12-14T06:35:27.002Z,84.39
2018-12-14T06:37:54.363Z,83.94
2018-12-14T06:40:21.812Z,84.73
2018-12-14T06:42:49.163Z,85.11
2018-12-14T06:45:16.727Z,84.73
2018-12-14T06:47:44.104Z,85.36
2018-12-14T06:50:11.535Z,84.25
2018-12-14T06:52:38.979Z,85.02
2018-12-14T06:55:06.524Z,84.36
2018-12-14T06:57:38.272Z,84.53
2018-12-14T07:00:06.957Z,84.07
2018-12-14T07:02:34.474Z,85.94
2018-12-14T07:05:01.879Z,85.12
2018-12-14T07:07:36.102Z,86.25
2018-12-14T07:10:03.669Z,85.91
2018-12-14T07:12:31.018Z,85.21
2018-12-14T07:14:58.427Z,84.11
2018-12-14T07:17:31.377Z,83.73
2018-12-14T07:19:58.749Z,84.16
2018-12-14T07:22:26.183Z,84.13
2018-12-14T07:24:53.609Z,86.23
2018-12-14T07:27:25.722Z,85.88
2018-12-14T07:29:53.125Z,84.72
2018-12-14T07:32:20.562Z,85.55
2018-12-14T07:34:47.920Z,86.64
2018-12-14T07:37:19.664Z,85.00
2018-12-14T07:39:47.029Z,87.47
2018-12-14T07:42:14.480Z,85.14
2018-12-14T07:44:45.675Z,86.32
2018-12-14T07:47:16.535Z,84.25
2018-12-14T07:49:47.399Z,85.13
2018-12-14T07:52:14.880Z,84.87
2018-12-14T07:54:42.353Z,84.99
2018-12-14T07:57:11.802Z,85.00
2018-12-14T07:59:42.399Z,82.76
2018-12-14T08:02:09.799Z,83.82
2018-12-14T08:04:40.441Z,83.34
2018-12-14T08:07:13.529Z,82.79
2018-12-14T08:09:40.942Z,84.10
2018-12-14T08:12:08.299Z,83.07
2018-12-14T08:14:35.727Z,85.39
2018-12-14T08:17:04.150Z,84.90
2018-12-14T08:19:34.743Z,86.39
2018-12-14T08:22:02.136Z,84.61
2018-12-14T08:24:32.701Z,84.05
2018-12-14T08:27:00.084Z,84.30
2018-12-14T08:29:27.439Z,84.90
2018-12-14T08:31:54.805Z,84.55
2018-12-14T08:34:25.795Z,83.72
2018-12-14T08:36:53.125Z,84.39
2018-12-14T08:39:25.990Z,84.04
2018-12-14T08:41:53.399Z,84.14
2018-12-14T08:44:20.775Z,82.89
2018-12-14T08:46:49.188Z,82.21
2018-12-14T08:49:20.094Z,82.72
2018-12-14T08:51:49.150Z,83.72
2018-12-14T08:54:16.561Z,82.73
2018-12-14T08:56:44.960Z,83.05
2018-12-14T08:59:12.393Z,81.35
2018-12-14T09:01:39.725Z,81.82
2018-12-14T09:04:07.160Z,81.57
2018-12-14T09:06:34.525Z,81.30
2018-12-14T09:09:01.947Z,82.26
2018-12-14T09:11:29.313Z,81.33
2018-12-14T09:14:02.302Z,81.31
2018-12-14T09:16:33.891Z,81.11
2018-12-14T09:19:01.577Z,81.86
2018-12-14T09:21:30.775Z,82.39
2018-12-14T09:23:58.146Z,81.40
2018-12-14T09:26:31.226Z,81.17
2018-12-14T09:28:58.861Z,81.00
2018-12-14T09:31:30.353Z,81.84
2018-12-14T09:34:01.190Z,81.55
2018-12-14T09:36:28.602Z,83.24
2018-12-14T09:38:55.994Z,82.74
2018-12-14T09:41:23.395Z,82.75
2018-12-14T09:43:54.310Z,82.52
2018-12-14T09:46:20.262Z,82.11
2018-12-14T09:48:47.704Z,83.32
2018-12-14T09:51:20.590Z,82.04
2018-12-14T09:53:53.628Z,82.13
2018-12-14T09:56:24.150Z,82.86
2018-12-14T09:58:55.363Z,81.85
2018-12-14T10:01:22.757Z,81.97
2018-12-14T10:03:50.396Z,82.02
2018-12-14T10:06:17.816Z,81.04
2018-12-14T10:08:48.944Z,81.14
2018-12-14T10:11:16.753Z,81.08
2018-12-14T10:13:48.104Z,81.62
2018-12-14T10:16:17.054Z,81.64
2018-12-14T10:18:46.250Z,81.94
2018-12-14T10:21:13.634Z,83.05
2018-12-14T10:23:41.052Z,81.51
2018-12-14T10:26:08.430Z,82.48
2018-12-14T10:28:35.825Z,81.67
2018-12-14T10:31:06.545Z,82.16
2018-12-14T10:33:33.944Z,82.07
2018-12-14T10:36:03.152Z,80.84
2018-12-14T10:38:34.105Z,81.48
2018-12-14T10:41:01.466Z,81.22
2018-12-14T10:43:28.879Z,81.68
2018-12-14T10:45:59.890Z,80.87
2018-12-14T10:48:31.074Z,81.12
2018-12-14T10:50:58.464Z,81.18
2018-12-14T10:53:31.463Z,80.16
2018-12-14T10:56:04.440Z,79.22
2018-12-14T10:58:33.919Z,79.65
2018-12-14T11:01:14.244Z,80.54
2018-12-14T11:03:40.010Z,81.01
2018-12-14T11:06:25.908Z,79.84
2018-12-14T11:08:53.331Z,79.86
2018-12-14T11:11:26.343Z,79.08
2018-12-14T11:13:56.844Z,79.66
2018-12-14T11:16:26.246Z,78.16
2018-12-14T11:18:53.634Z,78.36
2018-12-14T11:21:21.054Z,78.44
2018-12-14T11:23:48.460Z,79.50
2018-12-14T11:26:38.305Z,77.48
2018-12-14T11:29:05.688Z,77.99
2018-12-14T11:31:36.911Z,78.29
2018-12-14T11:34:04.329Z,78.36
2018-12-14T11:36:34.909Z,79.94
2018-12-14T11:39:02.462Z,80.22
2018-12-14T11:41:33.909Z,79.92
2018-12-14T11:44:04.784Z,80.34
2018-12-14T11:46:35.775Z,80.59
2018-12-14T11:49:04.934Z,80.36
2018-12-14T11:51:32.390Z,79.92
2018-12-14T11:54:03.317Z,80.48
2018-12-14T11:56:36.750Z,79.20
2018-12-14T11:59:07.415Z,79.79
2018-12-14T12:01:34.834Z,79.80
2018-12-14T12:04:05.630Z,80.01
2018-12-14T12:06:36.659Z,80.24
2018-12-14T12:09:10.424Z,77.83
2018-12-14T12:11:41.351Z,78.59
2018-12-14T12:14:08.777Z,77.40
2018-12-14T12:16:37.719Z,77.95
2018-12-14T12:19:08.604Z,78.48
2018-12-14T12:21:36.260Z,77.77
2018-12-14T12:24:09.150Z,78.43
2018-12-14T12:26:39.719Z,78.97
2018-12-14T12:29:10.784Z,78.67
2018-12-14T12:31:44.175Z,79.50
2018-12-14T12:34:11.639Z,79.57
2018-12-14T12:36:44.697Z,79.00
2018-12-14T12:39:15.453Z,79.92
2018-12-14T12:41:46.402Z,81.33
2018-12-14T12:44:17.420Z,80.17
2018-12-14T12:46:48.223Z,80.07
2018-12-14T12:49:15.659Z,78.56
2018-12-14T12:51:46.794Z,77.62
2018-12-14T12:54:14.231Z,77.13
2018-12-14T12:56:41.739Z,77.78
2018-12-14T12:59:12.546Z,77.39
2018-12-14T13:01:39.942Z,77.70
2018-12-14T13:04:11.224Z,77.24
2018-12-14T13:06:42.316Z,77.06
2018-12-14T13:09:09.729Z,79.24
2018-12-14T13:11:42.844Z,77.03
2018-12-14T13:14:13.592Z,77.54
2018-12-14T13:16:49.678Z,77.78
2018-12-14T13:19:20.301Z,79.62
2018-12-14T13:21:53.550Z,78.63
2018-12-14T13:24:20.896Z,79.54
2018-12-14T13:26:48.295Z,79.61
2018-12-14T13:29:15.711Z,80.39
2018-12-14T13:31:43.134Z,81.41
2018-12-14T13:34:10.539Z,80.43
2018-12-14T13:36:41.295Z,80.30
2018-12-14T13:39:08.703Z,80.37
2018-12-14T13:41:36.155Z,79.89
2018-12-14T13:44:06.878Z,81.60
2018-12-14T13:46:37.748Z,80.80
2018-12-14T13:49:05.169Z,80.78
2018-12-14T13:51:36.341Z,80.10
2018-12-14T13:54:07.222Z,79.63
2018-12-14T13:56:36.624Z,80.09
2018-12-14T13:59:07.971Z,80.76
2018-12-14T14:01:37.119Z,82.05
2018-12-14T14:04:07.991Z,82.30
2018-12-14T14:06:35.346Z,82.27
2018-12-14T14:09:06.119Z,82.71
2018-12-14T14:11:39.524Z,83.96
2018-12-14T14:14:10.010Z,84.15
2018-12-14T14:16:40.813Z,83.04
2018-12-14T14:19:14.195Z,82.79
2018-12-14T14:21:45.536Z,84.23
2018-12-14T14:24:16.619Z,83.05
2018-12-14T14:26:47.462Z,82.71
2018-12-14T14:29:16.588Z,82.03
2018-12-14T14:31:43.971Z,83.85
2018-12-14T14:34:14.708Z,83.00
2018-12-14T14:36:45.775Z,82.01
2018-12-14T14:39:13.186Z,82.02
2018-12-14T14:41:40.596Z,81.88
2018-12-14T14:44:12.104Z,81.54
2018-12-14T14:46:42.951Z,80.58
2018-12-14T14:49:14.266Z,81.12
2018-12-14T14:51:45.674Z,80.78
2018-12-14T14:54:14.701Z,81.55
2018-12-14T14:56:42.100Z,82.06
2018-12-14T14:59:12.821Z,81.26
2018-12-14T15:01:43.721Z,81.76
2018-12-14T15:04:15.878Z,83.06
2018-12-14T15:06:46.802Z,83.47
2018-12-14T15:09:18.834Z,84.03
2018-12-14T15:11:49.739Z,83.21
2018-12-14T15:14:20.825Z,83.64
2018-12-14T15:16:51.754Z,84.99
2018-12-14T15:19:22.846Z,84.26
2018-12-14T15:21:54.096Z,84.28
2018-12-14T15:24:24.966Z,84.45
2018-12-14T15:26:52.391Z,85.66
2018-12-14T15:29:23.334Z,85.17
2018-12-14T15:31:54.420Z,84.63
2018-12-14T15:34:21.906Z,85.33
2018-12-14T15:36:49.310Z,86.04
2018-12-14T15:39:20.015Z,85.22
2018-12-14T15:41:47.600Z,84.13
2018-12-14T15:44:20.423Z,83.98
2018-12-14T15:46:51.764Z,83.63
2018-12-14T15:49:23.000Z,84.76
2018-12-14T15:51:50.384Z,84.64
2018-12-14T15:54:19.686Z,83.08
2018-12-14T15:56:50.516Z,83.75
2018-12-14T15:59:21.078Z,82.64
2018-12-14T16:01:48.679Z,84.65
2018-12-14T16:04:16.113Z,86.11
2018-12-14T16:06:43.482Z,84.73
2018-12-14T16:09:14.789Z,85.41
2018-12-14T16:11:45.865Z,84.71
2018-12-14T16:14:19.392Z,83.57
2018-12-14T16:16:46.765Z,82.87
2018-12-14T16:19:17.822Z,82.01
2018-12-14T16:21:45.366Z,83.80
2018-12-14T16:24:16.375Z,83.51
2018-12-14T16:26:45.356Z,84.03
2018-12-14T16:29:12.775Z,84.09
2018-12-14T16:31:40.161Z,83.61
2018-12-14T16:34:10.708Z,85.69
2018-12-14T16:36:41.710Z,84.89
2018-12-14T16:39:15.391Z,85.00
2018-12-14T16:41:44.844Z,85.17
2018-12-14T16:44:15.704Z,85.54
2018-12-14T16:46:46.629Z,86.28
2018-12-14T16:49:14.181Z,85.52
2018-12-14T16:51:43.555Z,86.47
2018-12-14T16:54:14.682Z,85.24
2018-12-14T16:56:45.747Z,84.33
2018-12-14T16:59:13.113Z,85.04
2018-12-14T17:01:40.562Z,86.52
2018-12-14T17:04:10.022Z,85.02
2018-12-14T17:06:41.173Z,85.75
2018-12-14T17:09:10.401Z,83.83
2018-12-14T17:11:41.616Z,83.27
2018-12-14T17:14:09.031Z,83.26
2018-12-14T17:16:39.644Z,83.82
2018-12-14T17:19:10.678Z,84.55
2018-12-14T17:21:41.852Z,84.10
2018-12-14T17:24:09.251Z,85.39
2018-12-14T17:26:37.791Z,86.27
2018-12-14T17:29:06.881Z,85.90
2018-12-14T17:31:34.316Z,85.94
2018-12-14T17:35:26.203Z,86.00
2018-12-14T17:37:57.192Z,85.64
2018-12-14T17:40:27.722Z,84.75
2018-12-14T17:42:58.582Z,85.19
2018-12-14T17:45:25.937Z,86.10
2018-12-14T17:47:56.587Z,85.31
2018-12-14T17:50:23.979Z,84.87
2018-12-14T17:52:54.542Z,85.53
2018-12-14T17:55:25.688Z,84.93
2018-12-14T17:57:53.199Z,86.00
2018-12-14T18:00:23.808Z,84.25
2018-12-14T18:02:51.212Z,85.38
2018-12-14T18:05:21.802Z,83.64
2018-12-14T18:07:50.254Z,83.80
2018-12-14T18:10:17.623Z,83.31
2018-12-14T18:12:50.898Z,84.41
2018-12-14T18:15:18.289Z,84.08
2018-12-14T18:17:49.631Z,84.80
2018-12-14T18:20:23.130Z,83.97
2018-12-14T18:22:54.359Z,85.08
2018-12-14T18:25:23.249Z,84.55
2018-12-14T18:27:50.647Z,83.80
2018-12-14T18:30:23.578Z,84.56
2018-12-14T18:32:54.183Z,84.38
2018-12-14T18:35:21.722Z,83.13
2018-12-14T18:37:54.238Z,84.07
2018-12-14T18:40:21.671Z,83.29
2018-12-14T18:42:49.113Z,83.83
2018-12-14T18:45:16.524Z,83.94
2018-12-14T18:47:49.179Z,84.23
2018-12-14T18:50:20.129Z,84.72
2018-12-14T18:52:51.133Z,85.11
2018-12-14T18:55:22.415Z,84.44
2018-12-14T18:57:55.807Z,83.01
2018-12-14T19:00:23.271Z,84.18
2018-12-14T19:02:50.669Z,84.15
2018-12-14T19:05:21.358Z,84.21
2018-12-14T19:07:53.428Z,84.02
2018-12-14T19:10:20.823Z,84.61
2018-12-14T19:12:53.738Z,86.28
2018-12-14T19:15:24.570Z,84.65
2018-12-14T19:17:55.405Z,85.15
2018-12-14T19:20:29.085Z,84.22
2018-12-14T19:22:56.458Z,84.04
2018-12-14T19:25:23.877Z,83.14
2018-12-14T19:27:52.398Z,83.22
2018-12-14T19:30:19.859Z,83.96
2018-12-14T19:32:50.558Z,84.50
2018-12-14T19:35:17.962Z,84.11
2018-12-14T19:40:40.840Z,84.94
2018-12-14T19:45:41.109Z,85.34
2018-12-14T19:48:08.549Z,83.62
2018-12-14T19:50:39.273Z,84.15
2018-12-14T19:53:06.717Z,83.23
2018-12-14T19:55:34.144Z,83.37
2018-12-14T19:58:03.079Z,84.93
2018-12-14T20:00:44.537Z,84.77
2018-12-14T20:03:12.748Z,84.65
2018-12-14T20:05:43.594Z,86.08
2018-12-14T20:08:11.298Z,85.25
2018-12-14T20:10:38.790Z,85.19
2018-12-14T20:13:10.169Z,84.36
2018-12-14T20:15:41.125Z,85.33
2018-12-14T20:18:08.538Z,84.91
2018-12-14T20:20:35.948Z,85.76
2018-12-14T20:23:03.823Z,85.47
2018-12-14T20:25:34.692Z,84.16
2018-12-14T20:28:06.091Z,85.31
2018-12-14T20:30:33.943Z,84.12
2018-12-14T20:33:05.500Z,83.91
2018-12-14T20:35:33.567Z,83.93
2018-12-14T20:38:04.647Z,84.64
2018-12-14T20:40:36.147Z,85.04
2018-12-14T20:43:05.317Z,83.95
2018-12-14T20:45:34.534Z,85.51
2018-12-14T20:48:05.767Z,84.87
2018-12-14T20:50:33.378Z,84.40
2018-12-14T20:53:06.165Z,84.45
2018-12-14T20:55:36.828Z,84.25
2018-12-14T20:58:07.723Z,83.96
2018-12-14T21:00:38.524Z,84.07
2018-12-14T21:03:07.677Z,84.57
2018-12-14T21:05:36.567Z,84.20
2018-12-14T21:08:04.032Z,86.52
2018-12-14T21:10:31.556Z,84.29
2018-12-14T21:12:58.969Z,84.45
2018-12-14T21:15:32.052Z,83.36
2018-12-14T21:18:00.064Z,84.61
2018-12-14T21:20:27.757Z,84.27
2018-12-14T21:22:57.035Z,84.21
2018-12-14T21:25:25.024Z,84.27
2018-12-14T21:27:54.534Z,84.07
2018-12-14T21:30:28.348Z,83.76
2018-12-14T21:32:55.932Z,84.86
2018-12-14T21:35:23.603Z,83.88
2018-12-14T21:37:55.788Z,83.60
2018-12-14T21:40:26.449Z,82.89
2018-12-14T21:42:57.599Z,82.81
2018-12-14T21:45:25.081Z,83.41
2018-12-14T21:47:52.622Z,81.68
2018-12-14T21:50:23.740Z,81.94
2018-12-14T21:52:51.883Z,82.82
2018-12-14T21:55:19.910Z,84.48
2018-12-14T21:57:47.448Z,83.49
2018-12-14T22:00:20.745Z,84.27
2018-12-14T22:02:48.498Z,82.98
2018-12-14T22:05:17.511Z,82.38
2018-12-14T22:07:48.900Z,83.83
2018-12-14T22:10:16.469Z,85.22
2018-12-14T22:12:44.209Z,84.58
2018-12-14T22:15:11.879Z,83.18
2018-12-14T22:17:41.290Z,84.73
2018-12-14T22:20:12.453Z,85.08
2018-12-14T22:22:40.122Z,84.64
2018-12-14T22:25:08.087Z,86.46
2018-12-14T22:27:39.219Z,84.76
2018-12-14T22:30:08.627Z,86.34
2018-12-14T22:32:36.377Z,84.26
2018-12-14T22:35:04.455Z,83.47
2018-12-14T22:37:35.647Z,84.13
2018-12-14T22:40:03.785Z,85.48
2018-12-14T22:42:31.479Z,84.54
2018-12-14T22:45:01.229Z,83.70
2018-12-14T22:47:31.822Z,85.24
2018-12-14T22:50:05.364Z,83.95
2018-12-14T22:52:36.013Z,85.97
2018-12-14T22:55:04.067Z,86.19
2018-12-14T22:57:35.105Z,82.80
2018-12-14T23:00:03.763Z,83.46
2018-12-14T23:02:35.032Z,83.25
2018-12-14T23:05:05.838Z,84.89
2018-12-14T23:07:37.104Z,84.03
2018-12-14T23:10:10.193Z,84.19
2018-12-14T23:12:41.982Z,83.77
2018-12-14T23:15:09.477Z,85.11
2018-12-14T23:17:37.190Z,83.60
2018-12-14T23:20:06.266Z,83.27
2018-12-14T23:22:33.605Z,83.66
2018-12-14T23:25:01.037Z,84.24
2018-12-14T23:27:32.933Z,82.09
2018-12-14T23:30:00.634Z,85.95
2018-12-14T23:32:28.083Z,83.46
2018-12-14T23:34:59.099Z,82.42
2018-12-14T23:37:28.466Z,81.99
2018-12-14T23:39:59.357Z,81.31
2018-12-14T23:42:26.767Z,80.96
2018-12-14T23:44:59.852Z,82.03
2018-12-14T23:47:28.620Z,82.67
2018-12-14T23:49:56.008Z,83.26
2018-12-14T23:52:23.499Z,82.93
2018-12-14T23:54:50.864Z,83.79
2018-12-14T23:57:25.467Z,83.01
2018-12-14T23:59:59.122Z,87.14
